Time;durP1;ratioP1;P1;durP2;ratioP2;P2;SDS_P1;SDS_P2;PMS_P1;PMS_P2;Temp;Humidity;BMP_temperature;BMP_pressure;BME280_temperature;BME280_humidity;BME280_pressure;Samples;Min_cycle;Max_cycle;Signal;HPM_P1;HPM_P2
2023/12/01 00:02:26;;;;;;;15.70;8.48;;;;;;;;;;5085913;28;20323;-53
2023/12/01 00:04:56;;;;;;;20.65;9.10;;;;;;;;;;5085785;28;20097;-51
2023/12/01 00:07:22;;;;;;;20.35;8.55;;;;;;;;;;5086014;28;20324;-55
2023/12/01 00:09:50;;;;;;;15.75;8.48;;;;;;;;;;5085650;28;20036;-52
2023/12/01 00:12:17;;;;;;;16.00;8.43;;;;;;;;;;5085527;28;20031;-54
2023/12/01 00:14:44;;;;;;;15.68;8.55;;;;;;;;;;5085561;28;20040;-55
2023/12/01 00:17:10;;;;;;;23.63;8.88;;;;;;;;;;5085208;28;20080;-50
2023/12/01 00:19:37;;;;;;;35.53;24.40;;;;;;;;;;5098063;28;20043;-53
2023/12/01 00:22:04;;;;;;;15.50;9.93;;;;;;;;;;5105432;28;20036;-53
2023/12/01 00:24:31;;;;;;;14.35;8.02;;;;;;;;;;5104964;28;20328;-50
2023/12/01 00:26:58;;;;;;;17.33;8.25;;;;;;;;;;5105256;28;20035;-52
2023/12/01 00:29:24;;;;;;;16.30;7.85;;;;;;;;;;5105085;28;20224;-50
2023/12/01 00:31:53;;;;;;;12.23;7.55;;;;;;;;;;5105072;28;20063;-53
2023/12/01 00:34:20;;;;;;;12.15;8.15;;;;;;;;;;5105069;28;20032;-49
2023/12/01 00:36:47;;;;;;;12.80;8.55;;;;;;;;;;5105039;28;20040;-49
2023/12/01 00:39:13;;;;;;;14.23;8.50;;;;;;;;;;5104839;28;20027;-47
2023/12/01 00:41:40;;;;;;;12.07;7.65;;;;;;;;;;5104890;28;20087;-48
2023/12/01 00:44:07;;;;;;;14.43;7.80;;;;;;;;;;5104858;28;20040;-47
2023/12/01 00:46:33;;;;;;;12.55;7.20;;;;;;;;;;5104175;28;20020;-53
2023/12/01 00:49:00;;;;;;;14.13;7.75;;;;;;;;;;5104713;28;20328;-54
2023/12/01 00:51:27;;;;;;;13.98;7.80;;;;;;;;;;5104392;28;20047;-48
2023/12/01 00:53:55;;;;;;;14.40;7.65;;;;;;;;;;5104485;28;20027;-46
2023/12/01 00:56:24;;;;;;;14.85;7.60;;;;;;;;;;5104641;28;20028;-49
2023/12/01 00:58:50;;;;;;;11.98;6.93;;;;;;;;;;5104532;28;20091;-52
2023/12/01 01:01:17;;;;;;;15.40;8.00;;;;;;;;;;5104224;28;20059;-52
2023/12/01 01:03:44;;;;;;;12.45;7.35;;;;;;;;;;5104444;28;20212;-52
2023/12/01 01:06:11;;;;;;;16.25;7.47;;;;;;;;;;5103852;28;20066;-47
2023/12/01 01:08:37;;;;;;;15.43;7.72;;;;;;;;;;5103973;28;20051;-49
2023/12/01 01:11:04;;;;;;;13.18;7.43;;;;;;;;;;5104514;28;20027;-55
2023/12/01 01:13:32;;;;;;;12.90;7.05;;;;;;;;;;5091925;28;20321;-52
2023/12/01 01:16:00;;;;;;;12.88;7.30;;;;;;;;;;5090239;28;20219;-45
2023/12/01 01:18:26;;;;;;;12.68;7.50;;;;;;;;;;5091974;28;20051;-48
2023/12/01 01:20:53;;;;;;;13.60;7.43;;;;;;;;;;5103741;28;20048;-47
2023/12/01 01:23:20;;;;;;;15.85;7.15;;;;;;;;;;5104614;28;20055;-49
2023/12/01 01:25:46;;;;;;;12.02;6.93;;;;;;;;;;5098655;28;20078;-45
2023/12/01 01:28:13;;;;;;;13.45;6.65;;;;;;;;;;5093788;28;20029;-56
2023/12/01 01:30:40;;;;;;;12.40;7.10;;;;;;;;;;5093305;28;20047;-47
2023/12/01 01:33:07;;;;;;;13.30;7.28;;;;;;;;;;5084906;28;20354;-44
2023/12/01 01:35:33;;;;;;;10.95;6.70;;;;;;;;;;5088756;28;20281;-43
2023/12/01 01:38:00;;;;;;;11.68;7.05;;;;;;;;;;5099092;28;20016;-47
2023/12/01 01:40:27;;;;;;;17.02;7.80;;;;;;;;;;5090144;28;20032;-50
2023/12/01 01:42:53;;;;;;;12.27;6.93;;;;;;;;;;5102863;28;20269;-49
2023/12/01 01:45:20;;;;;;;12.80;6.78;;;;;;;;;;5095204;28;20027;-44
2023/12/01 01:47:47;;;;;;;14.20;6.88;;;;;;;;;;5098196;28;20024;-46
2023/12/01 01:50:14;;;;;;;13.35;6.55;;;;;;;;;;5095089;28;20033;-45
2023/12/01 01:52:41;;;;;;;14.25;6.63;;;;;;;;;;5092720;28;20028;-45
2023/12/01 01:55:08;;;;;;;14.00;6.68;;;;;;;;;;5085578;28;20043;-52
2023/12/01 01:57:40;;;;;;;15.20;7.28;;;;;;;;;;5094803;28;20028;-49
2023/12/01 02:00:07;;;;;;;15.55;6.78;;;;;;;;;;5082281;28;20032;-42
2023/12/01 02:02:36;;;;;;;12.38;7.03;;;;;;;;;;5084037;28;20080;-44
2023/12/01 02:05:12;;;;;;;16.88;7.22;;;;;;;;;;5087527;28;20253;-43
2023/12/01 02:07:41;;;;;;;12.07;6.70;;;;;;;;;;5091711;28;20203;-43
2023/12/01 02:10:17;;;;;;;14.13;6.72;;;;;;;;;;5083781;28;20296;-47
2023/12/01 02:12:47;;;;;;;12.32;6.45;;;;;;;;;;5082509;28;20016;-42
2023/12/01 02:15:14;;;;;;;12.02;6.90;;;;;;;;;;5083588;28;20171;-43
2023/12/01 02:17:40;;;;;;;13.77;6.70;;;;;;;;;;5090290;28;20051;-47
2023/12/01 02:20:14;;;;;;;15.05;7.38;;;;;;;;;;5091910;28;20043;-47
2023/12/01 02:22:42;;;;;;;13.23;6.97;;;;;;;;;;5103652;28;20032;-45
2023/12/01 02:25:10;;;;;;;12.45;6.68;;;;;;;;;;5107614;28;20024;-44
2023/12/01 02:27:37;;;;;;;10.35;6.32;;;;;;;;;;5107185;28;20030;-45
2023/12/01 02:30:04;;;;;;;10.32;6.50;;;;;;;;;;5107438;28;20039;-42
2023/12/01 02:32:30;;;;;;;13.05;7.07;;;;;;;;;;5108091;28;20075;-43
2023/12/01 02:34:57;;;;;;;15.73;7.30;;;;;;;;;;5100016;28;20024;-47
2023/12/01 02:37:24;;;;;;;10.73;6.82;;;;;;;;;;5089101;28;20028;-45
2023/12/01 02:39:50;;;;;;;11.15;7.32;;;;;;;;;;5086912;28;20024;-45
2023/12/01 02:42:17;;;;;;;10.57;6.93;;;;;;;;;;5086895;28;20024;-43
2023/12/01 02:44:44;;;;;;;9.43;6.47;;;;;;;;;;5101645;28;20028;-47
2023/12/01 02:47:10;;;;;;;10.38;6.75;;;;;;;;;;5107257;28;20085;-51
2023/12/01 02:49:37;;;;;;;11.50;6.40;;;;;;;;;;5106345;28;20032;-54
2023/12/01 02:52:04;;;;;;;10.70;6.30;;;;;;;;;;5107284;28;20253;-49
2023/12/01 02:54:30;;;;;;;10.27;6.40;;;;;;;;;;5107162;28;20039;-47
2023/12/01 02:56:57;;;;;;;10.77;6.07;;;;;;;;;;5106909;28;20031;-46
2023/12/01 02:59:24;;;;;;;10.25;6.13;;;;;;;;;;5107134;28;20028;-46
2023/12/01 03:01:53;;;;;;;11.15;5.65;;;;;;;;;;5107171;28;20060;-46
2023/12/01 03:04:19;;;;;;;10.27;5.80;;;;;;;;;;5106777;28;20039;-47
2023/12/01 03:06:46;;;;;;;7.75;5.95;;;;;;;;;;5106889;28;20058;-47
2023/12/01 03:09:17;;;;;;;12.82;5.53;;;;;;;;;;5106857;28;20020;-46
2023/12/01 03:11:44;;;;;;;9.13;5.80;;;;;;;;;;5106543;28;20027;-45
2023/12/01 03:14:11;;;;;;;9.70;5.95;;;;;;;;;;5106624;28;20042;-44
2023/12/01 03:16:38;;;;;;;12.88;5.70;;;;;;;;;;5100533;28;20079;-44
2023/12/01 03:19:08;;;;;;;9.00;5.35;;;;;;;;;;5099945;28;20028;-47
2023/12/01 03:21:35;;;;;;;9.90;5.47;;;;;;;;;;5106386;28;20043;-48
2023/12/01 03:24:03;;;;;;;7.53;5.15;;;;;;;;;;5106549;28;20020;-45
2023/12/01 03:26:30;;;;;;;8.73;5.25;;;;;;;;;;5106277;28;20057;-46
2023/12/01 03:28:57;;;;;;;10.32;5.40;;;;;;;;;;5106404;28;20079;-43
2023/12/01 03:31:25;;;;;;;9.27;5.15;;;;;;;;;;5105986;28;20023;-47
2023/12/01 03:33:51;;;;;;;8.50;5.72;;;;;;;;;;5106145;28;20039;-50
2023/12/01 03:36:18;;;;;;;10.05;5.07;;;;;;;;;;5106158;28;20020;-46
2023/12/01 03:38:45;;;;;;;10.18;5.47;;;;;;;;;;5106344;28;20050;-45
2023/12/01 03:41:12;;;;;;;7.43;5.05;;;;;;;;;;5106111;28;20028;-55
2023/12/01 03:43:38;;;;;;;12.60;5.38;;;;;;;;;;5106090;28;20024;-46
2023/12/01 03:46:05;;;;;;;10.55;5.45;;;;;;;;;;5106205;28;20008;-45
2023/12/01 03:48:36;;;;;;;11.10;5.05;;;;;;;;;;5106342;28;20239;-46
2023/12/01 03:51:03;;;;;;;7.32;4.80;;;;;;;;;;5093220;28;20063;-51
2023/12/01 03:53:33;;;;;;;6.57;4.70;;;;;;;;;;5106493;28;20065;-43
2023/12/01 03:56:00;;;;;;;6.40;5.05;;;;;;;;;;5105694;28;20201;-45
2023/12/01 03:58:26;;;;;;;8.95;4.75;;;;;;;;;;5106285;28;20024;-48
2023/12/01 04:00:54;;;;;;;10.07;4.88;;;;;;;;;;5105840;28;20062;-42
2023/12/01 04:03:24;;;;;;;7.93;4.95;;;;;;;;;;5106063;28;20303;-43
2023/12/01 04:05:52;;;;;;;11.02;4.57;;;;;;;;;;5105721;28;20028;-45
2023/12/01 04:08:20;;;;;;;7.38;4.60;;;;;;;;;;5106059;28;20083;-52
2023/12/01 04:10:47;;;;;;;7.82;4.13;;;;;;;;;;5105439;28;20091;-47
2023/12/01 04:13:15;;;;;;;11.48;4.78;;;;;;;;;;5106045;28;20020;-46
2023/12/01 04:15:43;;;;;;;8.25;4.35;;;;;;;;;;5105583;28;20332;-45
2023/12/01 04:18:10;;;;;;;8.02;4.53;;;;;;;;;;5105780;28;20038;-51
2023/12/01 04:20:38;;;;;;;8.73;4.60;;;;;;;;;;5105129;28;20047;-55
2023/12/01 04:23:12;;;;;;;7.45;4.75;;;;;;;;;;5105775;28;20039;-46
2023/12/01 04:25:39;;;;;;;5.95;4.35;;;;;;;;;;5105272;28;20085;-53
2023/12/01 04:28:07;;;;;;;8.00;4.47;;;;;;;;;;5105691;28;20012;-50
2023/12/01 04:30:34;;;;;;;8.70;4.00;;;;;;;;;;5104876;28;20256;-45
2023/12/01 04:33:01;;;;;;;10.65;4.40;;;;;;;;;;5105642;28;20079;-45
2023/12/01 04:35:29;;;;;;;8.57;4.13;;;;;;;;;;5105320;28;20024;-46
2023/12/01 04:37:56;;;;;;;7.53;4.50;;;;;;;;;;5105239;28;20283;-47
2023/12/01 04:40:23;;;;;;;4.80;4.28;;;;;;;;;;5105058;28;20031;-52
2023/12/01 04:42:51;;;;;;;5.10;4.15;;;;;;;;;;5102410;28;20304;-48
2023/12/01 04:45:19;;;;;;;6.28;4.07;;;;;;;;;;5095975;28;20324;-46
2023/12/01 04:47:50;;;;;;;7.78;4.55;;;;;;;;;;5085041;28;20031;-46
2023/12/01 04:50:18;;;;;;;7.20;4.40;;;;;;;;;;5084597;28;20027;-45
2023/12/01 04:52:44;;;;;;;6.95;4.20;;;;;;;;;;5084713;28;20031;-45
2023/12/01 04:55:12;;;;;;;7.00;4.32;;;;;;;;;;5084437;28;20079;-45
2023/12/01 04:57:39;;;;;;;8.27;4.15;;;;;;;;;;5084771;28;20290;-47
2023/12/01 05:00:21;;;;;;;8.27;4.95;;;;;;;;;;5084347;28;20228;-44
2023/12/01 05:02:51;;;;;;;7.65;4.03;;;;;;;;;;5084761;28;20047;-49
2023/12/01 05:05:19;;;;;;;8.60;4.80;;;;;;;;;;5084192;28;20055;-50
2023/12/01 05:07:49;;;;;;;8.75;4.57;;;;;;;;;;5092914;28;20075;-45
2023/12/01 05:10:20;;;;;;;6.40;4.13;;;;;;;;;;5104499;28;20027;-52
2023/12/01 05:12:51;;;;;;;6.18;4.60;;;;;;;;;;5104465;28;20024;-46
2023/12/01 05:15:18;;;;;;;7.93;4.80;;;;;;;;;;5104402;28;20020;-50
2023/12/01 05:17:53;;;;;;;6.95;4.47;;;;;;;;;;5104712;28;20030;-48
2023/12/01 05:20:23;;;;;;;8.57;4.38;;;;;;;;;;5104469;28;20239;-50
2023/12/01 05:22:51;;;;;;;5.47;4.18;;;;;;;;;;5104680;28;20081;-45
2023/12/01 05:25:19;;;;;;;7.18;4.20;;;;;;;;;;5104049;28;20290;-48
2023/12/01 05:27:56;;;;;;;5.93;3.60;;;;;;;;;;5104588;28;20032;-55
2023/12/01 05:30:26;;;;;;;5.32;3.63;;;;;;;;;;5104089;28;20099;-48
2023/12/01 05:32:53;;;;;;;7.28;3.72;;;;;;;;;;5104339;28;20196;-45
2023/12/01 05:35:20;;;;;;;6.63;3.55;;;;;;;;;;5104300;28;20080;-50
2023/12/01 05:37:49;;;;;;;5.50;3.78;;;;;;;;;;5104459;28;20020;-53
2023/12/01 05:40:17;;;;;;;6.43;3.50;;;;;;;;;;5103930;28;20032;-49
2023/12/01 05:42:44;;;;;;;5.82;3.42;;;;;;;;;;5104014;28;20269;-47
2023/12/01 05:45:12;;;;;;;7.50;3.33;;;;;;;;;;5104183;28;20079;-50
2023/12/01 05:47:45;;;;;;;6.18;3.83;;;;;;;;;;5104346;28;20012;-54
2023/12/01 05:50:13;;;;;;;5.93;3.47;;;;;;;;;;5104052;28;20043;-46
2023/12/01 05:52:41;;;;;;;5.70;3.63;;;;;;;;;;5104167;28;20107;-46
2023/12/01 05:55:15;;;;;;;7.43;4.13;;;;;;;;;;5107382;28;20051;-53
2023/12/01 05:57:48;;;;;;;9.68;4.20;;;;;;;;;;5108527;28;20016;-49
2023/12/01 06:00:17;;;;;;;7.40;4.15;;;;;;;;;;5107938;28;20055;-46
2023/12/01 06:02:44;;;;;;;8.45;4.57;;;;;;;;;;5108256;28;20031;-45
2023/12/01 06:05:11;;;;;;;8.73;4.32;;;;;;;;;;5108013;28;20038;-50
2023/12/01 06:07:38;;;;;;;7.55;4.68;;;;;;;;;;5108224;28;20030;-54
2023/12/01 06:10:05;;;;;;;12.13;4.53;;;;;;;;;;5107942;28;20020;-53
2023/12/01 06:12:33;;;;;;;11.55;4.68;;;;;;;;;;5108188;28;20209;-45
2023/12/01 06:15:00;;;;;;;8.55;5.30;;;;;;;;;;5107650;28;20137;-53
2023/12/01 06:17:26;;;;;;;6.95;4.97;;;;;;;;;;5108186;28;20253;-46
2023/12/01 06:19:53;;;;;;;9.77;4.78;;;;;;;;;;5107725;28;20032;-47
2023/12/01 06:22:20;;;;;;;9.35;5.45;;;;;;;;;;5107686;28;20103;-51
2023/12/01 06:24:47;;;;;;;8.20;5.00;;;;;;;;;;5107770;28;20076;-48
2023/12/01 06:27:13;;;;;;;8.93;4.85;;;;;;;;;;5107676;28;20036;-52
2023/12/01 06:29:40;;;;;;;8.07;5.35;;;;;;;;;;5107451;28;20035;-54
2023/12/01 06:32:07;;;;;;;9.18;4.90;;;;;;;;;;5107407;28;20024;-45
2023/12/01 06:34:33;;;;;;;8.55;4.70;;;;;;;;;;5107547;28;20024;-45
2023/12/01 06:37:00;;;;;;;9.25;5.10;;;;;;;;;;5107437;28;20028;-46
2023/12/01 06:39:28;;;;;;;9.10;4.82;;;;;;;;;;5107421;28;20028;-46
2023/12/01 06:41:55;;;;;;;6.43;3.97;;;;;;;;;;5107451;28;20035;-50
2023/12/01 06:44:22;;;;;;;7.88;4.15;;;;;;;;;;5107136;28;20032;-54
2023/12/01 06:46:49;;;;;;;7.63;3.88;;;;;;;;;;5107525;28;20012;-46
2023/12/01 06:49:16;;;;;;;6.50;3.97;;;;;;;;;;5107155;28;20089;-45
2023/12/01 06:51:43;;;;;;;4.63;2.83;;;;;;;;;;5107143;28;20024;-48
2023/12/01 06:54:10;;;;;;;5.20;3.50;;;;;;;;;;5107205;28;20304;-48
2023/12/01 06:56:38;;;;;;;6.63;3.33;;;;;;;;;;5107174;28;20296;-47
2023/12/01 06:59:08;;;;;;;4.53;3.10;;;;;;;;;;5106925;28;20050;-46
2023/12/01 07:01:35;;;;;;;6.85;3.20;;;;;;;;;;5106964;28;20057;-52
2023/12/01 07:04:07;;;;;;;5.65;3.38;;;;;;;;;;5100791;28;20252;-46
2023/12/01 07:06:34;;;;;;;6.45;2.95;;;;;;;;;;5099667;28;20043;-53
2023/12/01 07:09:01;;;;;;;5.93;3.17;;;;;;;;;;5106857;28;20047;-51
2023/12/01 07:11:28;;;;;;;4.45;2.83;;;;;;;;;;5106759;28;20320;-47
2023/12/01 07:13:55;;;;;;;3.55;2.53;;;;;;;;;;5106536;28;20043;-51
2023/12/01 07:16:21;;;;;;;5.30;2.80;;;;;;;;;;5106665;28;20062;-46
2023/12/01 07:18:48;;;;;;;5.40;3.22;;;;;;;;;;5106708;28;20027;-43
2023/12/01 07:21:15;;;;;;;6.95;3.40;;;;;;;;;;5106104;28;20040;-44
2023/12/01 07:23:44;;;;;;;4.95;2.92;;;;;;;;;;5106508;28;20024;-53
2023/12/01 07:26:12;;;;;;;5.07;2.65;;;;;;;;;;5106534;28;20012;-44
2023/12/01 07:28:38;;;;;;;4.32;2.85;;;;;;;;;;5106247;28;20134;-47
2023/12/01 07:31:05;;;;;;;7.55;2.92;;;;;;;;;;5106386;28;20091;-43
2023/12/01 07:33:32;;;;;;;6.65;3.08;;;;;;;;;;5106930;28;20186;-45
2023/12/01 07:35:58;;;;;;;6.00;3.28;;;;;;;;;;5106076;28;20028;-48
2023/12/01 07:38:25;;;;;;;6.40;3.03;;;;;;;;;;5106702;28;20044;-45
2023/12/01 07:40:52;;;;;;;4.55;3.00;;;;;;;;;;5106194;28;20028;-51
2023/12/01 07:43:19;;;;;;;8.48;2.83;;;;;;;;;;5106402;28;20020;-45
2023/12/01 07:45:46;;;;;;;4.32;2.88;;;;;;;;;;5106061;28;20247;-43
2023/12/01 07:48:13;;;;;;;4.35;3.05;;;;;;;;;;5106564;28;20043;-44
2023/12/01 07:50:39;;;;;;;4.25;2.83;;;;;;;;;;5105798;28;20032;-43
2023/12/01 07:53:06;;;;;;;5.18;3.20;;;;;;;;;;5106361;28;20027;-46
2023/12/01 07:55:33;;;;;;;6.82;2.95;;;;;;;;;;5106003;28;20016;-43
2023/12/01 07:58:00;;;;;;;6.30;2.90;;;;;;;;;;5105547;28;20020;-44
2023/12/01 08:00:27;;;;;;;4.68;2.70;;;;;;;;;;5105806;28;20028;-46
2023/12/01 08:02:54;;;;;;;4.55;2.97;;;;;;;;;;5106175;28;20011;-49
2023/12/01 08:05:21;;;;;;;5.22;2.85;;;;;;;;;;5105508;28;20034;-44
2023/12/01 08:07:51;;;;;;;4.00;2.45;;;;;;;;;;5106077;28;20027;-44
2023/12/01 08:10:19;;;;;;;4.85;2.42;;;;;;;;;;5105616;28;20024;-44
2023/12/01 08:12:46;;;;;;;4.03;2.20;;;;;;;;;;5105769;28;20031;-43
2023/12/01 08:15:13;;;;;;;5.50;2.70;;;;;;;;;;5105671;28;20024;-49
2023/12/01 08:17:40;;;;;;;3.25;2.33;;;;;;;;;;5105850;28;20376;-44
2023/12/01 08:20:07;;;;;;;7.15;2.88;;;;;;;;;;5105364;28;20043;-43
2023/12/01 08:22:43;;;;;;;4.70;2.58;;;;;;;;;;5105655;28;20032;-44
2023/12/01 08:25:10;;;;;;;7.10;2.88;;;;;;;;;;5105324;28;20012;-44
2023/12/01 08:27:37;;;;;;;4.43;2.70;;;;;;;;;;5105467;28;20344;-44
2023/12/01 08:30:04;;;;;;;5.97;2.70;;;;;;;;;;5105286;28;20024;-50
2023/12/01 08:32:31;;;;;;;5.57;2.53;;;;;;;;;;5105514;28;20027;-50
2023/12/01 08:34:58;;;;;;;3.05;2.40;;;;;;;;;;5104996;28;20040;-44
2023/12/01 08:37:24;;;;;;;5.47;2.33;;;;;;;;;;5105580;28;20020;-47
2023/12/01 08:39:51;;;;;;;4.55;2.42;;;;;;;;;;5105163;28;20344;-44
2023/12/01 08:42:18;;;;;;;5.30;2.42;;;;;;;;;;5104967;28;20050;-50
2023/12/01 08:44:45;;;;;;;3.47;2.33;;;;;;;;;;5105001;28;20228;-45
2023/12/01 08:47:13;;;;;;;4.40;2.30;;;;;;;;;;5105156;28;20012;-44
2023/12/01 08:49:40;;;;;;;5.05;2.67;;;;;;;;;;5104673;28;20373;-50
2023/12/01 08:52:07;;;;;;;4.28;2.22;;;;;;;;;;5105191;28;20181;-46
2023/12/01 08:54:35;;;;;;;4.85;2.90;;;;;;;;;;5104845;28;20038;-51
2023/12/01 08:57:01;;;;;;;3.97;2.38;;;;;;;;;;5103514;28;20032;-51
2023/12/01 08:59:28;;;;;;;5.93;2.63;;;;;;;;;;5104692;28;20223;-54
2023/12/01 09:01:55;;;;;;;4.82;2.60;;;;;;;;;;5104844;28;20020;-53
2023/12/01 09:04:21;;;;;;;4.10;2.50;;;;;;;;;;5104478;28;20098;-52
2023/12/01 09:06:48;;;;;;;3.80;2.70;;;;;;;;;;5104762;28;20024;-49
2023/12/01 09:09:15;;;;;;;6.97;2.85;;;;;;;;;;5091881;28;20066;-45
2023/12/01 09:11:41;;;;;;;5.95;2.80;;;;;;;;;;5104454;28;20078;-44
2023/12/01 09:14:08;;;;;;;4.45;2.80;;;;;;;;;;5104447;28;20269;-44
2023/12/01 09:16:35;;;;;;;6.10;2.80;;;;;;;;;;5104636;28;20126;-44
2023/12/01 09:19:01;;;;;;;7.35;3.25;;;;;;;;;;5104316;28;20066;-45
2023/12/01 09:21:28;;;;;;;4.85;2.72;;;;;;;;;;5104208;28;20051;-50
2023/12/01 09:23:55;;;;;;;5.45;2.80;;;;;;;;;;5104798;28;20024;-44
2023/12/01 09:26:21;;;;;;;4.63;2.90;;;;;;;;;;5104122;28;20099;-44
2023/12/01 09:28:50;;;;;;;4.30;2.70;;;;;;;;;;5104006;28;20065;-44
2023/12/01 09:31:17;;;;;;;5.05;2.75;;;;;;;;;;5104258;28;20016;-44
2023/12/01 09:33:44;;;;;;;5.65;3.30;;;;;;;;;;5104101;28;20032;-43
2023/12/01 09:36:11;;;;;;;5.78;3.20;;;;;;;;;;5104126;28;20268;-44
2023/12/01 09:38:38;;;;;;;4.88;3.03;;;;;;;;;;5104400;28;20035;-45
2023/12/01 09:41:04;;;;;;;5.40;3.00;;;;;;;;;;5100304;28;20032;-45
2023/12/01 09:43:32;;;;;;;4.43;2.67;;;;;;;;;;5095119;28;20024;-51
2023/12/01 09:45:59;;;;;;;6.32;3.10;;;;;;;;;;5104128;28;20027;-45
2023/12/01 09:48:26;;;;;;;6.25;3.30;;;;;;;;;;5104499;28;20027;-44
2023/12/01 09:50:54;;;;;;;5.57;3.40;;;;;;;;;;5104033;28;20027;-47
2023/12/01 09:53:21;;;;;;;4.95;3.17;;;;;;;;;;5104595;28;20023;-46
2023/12/01 09:55:48;;;;;;;6.05;3.63;;;;;;;;;;5104152;28;20311;-48
2023/12/01 09:58:15;;;;;;;7.90;3.17;;;;;;;;;;5104486;28;20126;-48
2023/12/01 10:00:42;;;;;;;6.68;3.45;;;;;;;;;;5103980;28;20032;-45
2023/12/01 10:03:08;;;;;;;7.82;3.50;;;;;;;;;;5104151;28;20028;-46
2023/12/01 10:05:36;;;;;;;8.15;4.00;;;;;;;;;;5104042;28;20020;-46
2023/12/01 10:08:04;;;;;;;6.82;3.47;;;;;;;;;;5104340;28;20016;-43
2023/12/01 10:10:31;;;;;;;6.68;3.47;;;;;;;;;;5103719;28;20032;-51
2023/12/01 10:12:59;;;;;;;8.77;3.83;;;;;;;;;;5104254;28;20020;-46
2023/12/01 10:15:27;;;;;;;6.97;4.00;;;;;;;;;;5103767;28;20087;-47
2023/12/01 10:18:09;;;;;;;6.35;4.03;;;;;;;;;;5104113;28;20024;-45
2023/12/01 10:20:36;;;;;;;5.95;4.20;;;;;;;;;;5103613;28;20063;-46
2023/12/01 10:23:18;;;;;;;6.13;3.55;;;;;;;;;;5104332;28;20035;-52
2023/12/01 10:25:49;;;;;;;7.22;3.67;;;;;;;;;;5103715;28;20055;-53
2023/12/01 10:28:16;;;;;;;7.30;3.30;;;;;;;;;;5103679;28;20032;-55
2023/12/01 10:30:53;;;;;;;6.65;3.80;;;;;;;;;;5103527;28;20066;-53
2023/12/01 10:33:20;;;;;;;7.82;3.42;;;;;;;;;;5104117;28;20234;-54
2023/12/01 10:36:01;;;;;;;8.55;3.72;;;;;;;;;;5091675;28;20088;-54
2023/12/01 10:38:28;;;;;;;6.95;3.50;;;;;;;;;;5083929;28;20021;-43
2023/12/01 10:40:55;;;;;;;9.02;3.55;;;;;;;;;;5084405;28;20039;-48
2023/12/01 10:43:22;;;;;;;6.00;3.38;;;;;;;;;;5087346;28;20106;-42
2023/12/01 10:45:49;;;;;;;7.60;3.25;;;;;;;;;;5087192;28;20111;-42
2023/12/01 10:48:19;;;;;;;8.68;3.95;;;;;;;;;;5087332;28;20035;-44
2023/12/01 10:50:52;;;;;;;9.90;3.83;;;;;;;;;;5086777;28;20032;-47
2023/12/01 10:53:19;;;;;;;8.85;4.07;;;;;;;;;;5087516;28;20021;-44
2023/12/01 10:55:49;;;;;;;6.05;3.67;;;;;;;;;;5086794;28;20320;-43
2023/12/01 10:58:22;;;;;;;7.15;3.72;;;;;;;;;;5100728;28;20020;-45
2023/12/01 11:00:53;;;;;;;8.43;3.60;;;;;;;;;;5101939;28;20025;-51
2023/12/01 11:03:25;;;;;;;7.20;3.50;;;;;;;;;;5090063;28;20106;-47
2023/12/01 11:05:57;;;;;;;8.40;3.67;;;;;;;;;;5093922;28;20032;-46
2023/12/01 11:08:30;;;;;;;14.40;8.32;;;;;;;;;;5098193;28;20024;-48
2023/12/01 11:11:00;;;;;;;35.50;16.08;;;;;;;;;;5086636;28;20035;-44
2023/12/01 11:13:45;;;;;;;37.45;13.32;;;;;;;;;;5086323;28;20098;-46
2023/12/01 11:16:13;;;;;;;23.63;9.75;;;;;;;;;;5093343;28;20252;-47
2023/12/01 11:18:43;;;;;;;26.77;16.60;;;;;;;;;;5095115;28;20071;-46
2023/12/01 11:21:10;;;;;;;24.92;11.80;;;;;;;;;;5095969;28;20057;-44
2023/12/01 11:23:37;;;;;;;22.92;10.40;;;;;;;;;;5096698;28;20032;-51
2023/12/01 11:26:06;;;;;;;20.38;8.45;;;;;;;;;;5094758;28;20298;-46
2023/12/01 11:31:14;;;;;;;16.23;6.93;;;;;;;;;;5093349;28;20031;-45
2023/12/01 11:33:45;;;;;;;15.07;6.30;;;;;;;;;;5099832;28;20334;-46
2023/12/01 11:36:20;;;;;;;14.68;7.05;;;;;;;;;;5098224;28;20091;-50
2023/12/01 11:39:08;;;;;;;11.20;6.07;;;;;;;;;;5104678;28;20039;-52
2023/12/01 11:41:35;;;;;;;10.07;5.47;;;;;;;;;;5104368;28;20051;-51
2023/12/01 11:44:07;;;;;;;15.18;5.57;;;;;;;;;;5104520;28;20324;-57
2023/12/01 11:46:34;;;;;;;9.75;4.45;;;;;;;;;;5104457;28;20399;-55
2023/12/01 11:49:01;;;;;;;13.10;5.05;;;;;;;;;;5104452;28;20032;-54
2023/12/01 11:51:27;;;;;;;7.95;4.20;;;;;;;;;;5104853;28;20040;-52
2023/12/01 11:53:58;;;;;;;11.65;4.50;;;;;;;;;;5105402;28;20024;-54
2023/12/01 11:56:28;;;;;;;8.18;4.20;;;;;;;;;;5104067;28;20020;-52
2023/12/01 11:58:55;;;;;;;8.32;4.85;;;;;;;;;;5104008;28;20297;-53
2023/12/01 12:01:25;;;;;;;12.98;4.35;;;;;;;;;;5103967;28;20291;-52
2023/12/01 12:03:58;;;;;;;8.80;4.38;;;;;;;;;;5103943;28;20036;-53
2023/12/01 12:06:26;;;;;;;10.35;4.40;;;;;;;;;;5103924;28;20032;-52
2023/12/01 12:08:53;;;;;;;8.85;4.38;;;;;;;;;;5104652;28;20070;-52
2023/12/01 12:11:23;;;;;;;8.63;3.75;;;;;;;;;;5106478;28;20035;-54
2023/12/01 12:13:56;;;;;;;8.40;3.70;;;;;;;;;;5106249;28;20039;-52
2023/12/01 12:16:25;;;;;;;8.70;4.50;;;;;;;;;;5106359;28;20264;-51
2023/12/01 12:18:52;;;;;;;9.68;4.15;;;;;;;;;;5106281;28;20074;-53
2023/12/01 12:21:19;;;;;;;7.13;4.13;;;;;;;;;;5105973;28;20064;-50
2023/12/01 12:23:46;;;;;;;10.75;4.22;;;;;;;;;;5105349;28;20032;-50
2023/12/01 12:26:39;;;;;;;12.13;4.40;;;;;;;;;;5105344;28;20032;-53
2023/12/01 12:29:06;;;;;;;11.07;4.35;;;;;;;;;;5102086;28;20036;-57
2023/12/01 12:31:35;;;;;;;8.98;3.75;;;;;;;;;;5105103;28;20024;-53
2023/12/01 12:34:05;;;;;;;9.40;4.00;;;;;;;;;;5105243;28;20024;-52
2023/12/01 12:36:33;;;;;;;6.93;3.85;;;;;;;;;;5105253;28;20095;-51
2023/12/01 12:39:01;;;;;;;5.07;3.63;;;;;;;;;;5105064;28;20425;-52
2023/12/01 12:41:32;;;;;;;7.15;3.70;;;;;;;;;;5105447;28;20031;-53
2023/12/01 12:43:59;;;;;;;8.95;3.35;;;;;;;;;;5104925;28;20023;-53
2023/12/01 12:46:27;;;;;;;8.10;3.60;;;;;;;;;;5105242;28;20024;-51
2023/12/01 12:49:00;;;;;;;13.40;3.97;;;;;;;;;;5105187;28;20035;-53
2023/12/01 12:51:28;;;;;;;6.32;3.50;;;;;;;;;;5104821;28;20051;-53
2023/12/01 12:53:56;;;;;;;8.13;3.33;;;;;;;;;;5104800;28;20036;-55
2023/12/01 12:56:23;;;;;;;6.75;3.90;;;;;;;;;;5104898;28;20020;-50
2023/12/01 12:58:50;;;;;;;11.65;3.85;;;;;;;;;;5104818;28;20028;-52
2023/12/01 13:01:17;;;;;;;7.53;3.65;;;;;;;;;;5104846;28;20392;-50
2023/12/01 13:03:44;;;;;;;7.55;3.40;;;;;;;;;;5104289;28;20047;-52
2023/12/01 13:06:11;;;;;;;5.47;3.55;;;;;;;;;;5104547;28;20024;-54
2023/12/01 13:08:39;;;;;;;9.07;3.85;;;;;;;;;;5105297;28;20276;-50
2023/12/01 13:11:09;;;;;;;10.88;3.47;;;;;;;;;;5105050;28;20020;-50
2023/12/01 13:13:40;;;;;;;5.65;3.80;;;;;;;;;;5104509;28;20047;-54
2023/12/01 13:16:07;;;;;;;5.65;3.20;;;;;;;;;;5105124;28;20319;-50
2023/12/01 13:18:40;;;;;;;7.35;3.58;;;;;;;;;;5104948;28;20057;-50
2023/12/01 13:21:08;;;;;;;10.00;3.47;;;;;;;;;;5104393;28;20239;-51
2023/12/01 13:23:38;;;;;;;5.35;3.13;;;;;;;;;;5104267;28;20295;-54
2023/12/01 13:26:05;;;;;;;5.45;2.85;;;;;;;;;;5104970;28;20015;-52
2023/12/01 13:28:33;;;;;;;8.82;3.20;;;;;;;;;;5105011;28;20039;-54
2023/12/01 13:31:00;;;;;;;9.10;3.38;;;;;;;;;;5104380;28;20091;-52
2023/12/01 13:33:27;;;;;;;11.10;3.38;;;;;;;;;;5104745;28;20024;-49
2023/12/01 13:35:54;;;;;;;5.57;3.30;;;;;;;;;;5104102;28;20027;-51
2023/12/01 13:38:21;;;;;;;9.93;3.35;;;;;;;;;;5104735;28;20032;-53
2023/12/01 13:40:47;;;;;;;8.80;3.40;;;;;;;;;;5104426;28;20224;-52
2023/12/01 13:43:16;;;;;;;8.48;3.30;;;;;;;;;;5104394;28;20024;-53
2023/12/01 13:45:43;;;;;;;9.13;3.60;;;;;;;;;;5104500;28;20021;-52
2023/12/01 13:48:10;;;;;;;8.10;3.35;;;;;;;;;;5104729;28;20454;-52
2023/12/01 13:50:38;;;;;;;8.13;3.60;;;;;;;;;;5103962;28;20081;-53
2023/12/01 13:53:04;;;;;;;7.72;3.75;;;;;;;;;;5104496;28;20275;-51
2023/12/01 13:55:31;;;;;;;6.32;3.40;;;;;;;;;;5104151;28;20324;-52
2023/12/01 13:57:58;;;;;;;6.30;3.58;;;;;;;;;;5104344;28;20020;-59
2023/12/01 14:00:25;;;;;;;6.47;3.60;;;;;;;;;;5104173;28;20052;-52
2023/12/01 14:02:52;;;;;;;7.68;3.45;;;;;;;;;;5104750;28;20023;-53
2023/12/01 14:05:21;;;;;;;7.03;3.70;;;;;;;;;;5104233;28;20035;-54
2023/12/01 14:07:48;;;;;;;6.68;3.72;;;;;;;;;;5104333;28;20024;-57
2023/12/01 14:10:15;;;;;;;5.82;3.70;;;;;;;;;;5104949;28;20313;-52
2023/12/01 14:12:42;;;;;;;5.95;3.33;;;;;;;;;;5104239;28;20287;-51
2023/12/01 14:15:10;;;;;;;7.40;3.78;;;;;;;;;;5105591;28;20056;-50
2023/12/01 14:17:37;;;;;;;6.93;3.85;;;;;;;;;;5106737;28;20250;-50
2023/12/01 14:20:04;;;;;;;7.75;3.47;;;;;;;;;;5107672;28;20044;-51
2023/12/01 14:22:31;;;;;;;8.30;3.80;;;;;;;;;;5108010;28;20024;-53
2023/12/01 14:24:58;;;;;;;5.68;3.45;;;;;;;;;;5107868;28;20032;-54
2023/12/01 14:27:25;;;;;;;7.93;4.07;;;;;;;;;;5107501;28;20308;-54
2023/12/01 14:29:51;;;;;;;5.57;3.72;;;;;;;;;;5107699;28;20054;-52
2023/12/01 14:32:18;;;;;;;8.30;3.70;;;;;;;;;;5108058;28;20087;-51
2023/12/01 14:34:45;;;;;;;6.00;3.58;;;;;;;;;;5107583;28;20046;-53
2023/12/01 14:37:12;;;;;;;5.25;3.25;;;;;;;;;;5107722;28;20028;-52
2023/12/01 14:39:38;;;;;;;9.50;3.78;;;;;;;;;;5107592;28;20040;-50
2023/12/01 14:42:06;;;;;;;13.70;4.53;;;;;;;;;;5107317;28;20076;-52
2023/12/01 14:44:33;;;;;;;5.80;4.03;;;;;;;;;;5107738;28;20032;-51
2023/12/01 14:47:00;;;;;;;9.30;4.20;;;;;;;;;;5107611;28;20027;-50